createdAt,value
2022-09-28T00:01:44.601Z,88.35
2022-09-28T00:04:12.181Z,88.42
2022-09-28T00:06:38.990Z,89.40
2022-09-28T00:09:05.465Z,91.46
2022-09-28T00:11:31.988Z,91.18
2022-09-28T00:14:03.509Z,92.25
2022-09-28T00:16:32.894Z,93.45
2022-09-28T00:18:59.947Z,93.53
2022-09-28T00:21:31.943Z,93.18
2022-09-28T00:24:12.968Z,90.16
2022-09-28T00:26:42.873Z,91.30
2022-09-28T00:29:16.548Z,90.05
2022-09-28T00:31:43.232Z,90.45
2022-09-28T00:34:09.808Z,89.36
2022-09-28T00:36:36.730Z,91.35
2022-09-28T00:39:06.137Z,93.50
2022-09-28T00:41:32.694Z,94.41
2022-09-28T00:44:24.026Z,94.66
2022-09-28T00:47:31.188Z,94.07
2022-09-28T00:50:03.458Z,94.61
2022-09-28T00:52:50.375Z,94.88
2022-09-28T00:55:22.739Z,95.81
2022-09-28T00:57:55.908Z,96.12
2022-09-28T01:00:22.722Z,95.16
2022-09-28T01:02:49.299Z,94.57
2022-09-28T01:05:17.773Z,92.91
2022-09-28T01:07:46.415Z,92.17
2022-09-28T01:10:13.438Z,90.77
2022-09-28T01:12:39.857Z,90.48
2022-09-28T01:15:06.894Z,91.77
2022-09-28T01:18:08.377Z,91.93
2022-09-28T01:20:47.280Z,92.41
2022-09-28T01:23:19.505Z,94.32
2022-09-28T01:26:09.538Z,94.31
2022-09-28T01:28:36.503Z,91.72
2022-09-28T01:31:10.514Z,90.31
2022-09-28T01:33:55.369Z,92.68
2022-09-28T01:36:28.132Z,94.38
2022-09-28T01:39:11.620Z,94.40
2022-09-28T01:41:41.699Z,96.48
2022-09-28T01:44:16.102Z,96.50
2022-09-28T01:46:46.749Z,92.70
2022-09-28T01:49:40.107Z,90.45
2022-09-28T01:52:13.336Z,92.13
2022-09-28T01:54:46.230Z,88.05
2022-09-28T01:57:24.046Z,89.48
2022-09-28T02:00:14.874Z,89.21
2022-09-28T02:02:44.723Z,89.78
2022-09-28T02:05:28.264Z,91.36
2022-09-28T02:07:59.584Z,92.36
2022-09-28T02:10:33.547Z,92.58
2022-09-28T02:13:06.063Z,94.00
2022-09-28T02:15:40.873Z,95.28
2022-09-28T02:18:07.953Z,94.91
2022-09-28T02:20:36.595Z,93.95
2022-09-28T02:23:04.988Z,93.16
2022-09-28T02:25:50.288Z,92.45
2022-09-28T02:28:16.742Z,92.25
2022-09-28T02:30:44.604Z,91.07
2022-09-28T02:33:21.777Z,90.66
2022-09-28T02:35:48.233Z,92.03
2022-09-28T02:38:15.520Z,92.93
2022-09-28T02:40:46.008Z,94.74
2022-09-28T02:43:24.678Z,94.61
2022-09-28T02:46:26.813Z,93.35
2022-09-28T02:49:21.711Z,93.00
2022-09-28T02:52:26.616Z,95.33
2022-09-28T02:55:14.935Z,94.67
2022-09-28T02:57:56.339Z,95.15
2022-09-28T03:00:24.258Z,95.99
2022-09-28T03:03:12.128Z,96.71
2022-09-28T03:05:52.695Z,95.98
2022-09-28T03:08:39.224Z,96.80
2022-09-28T03:11:13.900Z,97.26
2022-09-28T03:13:41.869Z,96.81
2022-09-28T03:16:13.528Z,98.00
2022-09-28T03:18:40.991Z,97.51
2022-09-28T03:21:09.344Z,98.36
2022-09-28T03:23:35.792Z,97.01
2022-09-28T03:26:02.206Z,97.31
2022-09-28T03:28:29.246Z,97.95
2022-09-28T03:30:56.167Z,97.93
2022-09-28T03:33:22.897Z,99.41
2022-09-28T03:35:50.587Z,98.76
2022-09-28T03:38:20.634Z,99.17
2022-09-28T03:41:00.072Z,99.10
2022-09-28T03:43:27.946Z,98.46
2022-09-28T03:45:56.308Z,98.55
2022-09-28T03:48:32.047Z,98.81
2022-09-28T03:51:01.604Z,99.96
2022-09-28T03:53:29.780Z,99.20
2022-09-28T03:55:56.667Z,99.86
2022-09-28T03:58:23.468Z,100.00
2022-09-28T04:00:50.352Z,100.00
2022-09-28T04:03:16.849Z,100.00
2022-09-28T04:05:51.003Z,100.00
2022-09-28T04:08:17.873Z,100.00
2022-09-28T04:10:44.274Z,100.00
2022-09-28T04:13:10.777Z,100.00
2022-09-28T04:15:38.484Z,100.00
2022-09-28T04:18:12.246Z,100.00
2022-09-28T04:20:41.038Z,100.00
2022-09-28T04:23:07.530Z,100.00
2022-09-28T04:25:33.941Z,100.00
2022-09-28T04:28:19.413Z,100.00
2022-09-28T04:30:47.319Z,100.00
2022-09-28T04:33:13.892Z,100.00
2022-09-28T04:35:40.311Z,100.00
2022-09-28T04:38:06.811Z,100.00
2022-09-28T04:40:33.288Z,100.00
2022-09-28T04:42:59.729Z,100.00
2022-09-28T04:45:26.953Z,100.00
2022-09-28T04:47:53.881Z,100.00
2022-09-28T04:50:20.787Z,100.00
2022-09-28T04:52:47.231Z,100.00
2022-09-28T04:55:14.520Z,100.00
2022-09-28T04:57:41.188Z,100.00
2022-09-28T05:00:09.395Z,100.00
2022-09-28T05:02:35.951Z,100.00
2022-09-28T05:05:02.394Z,100.00
2022-09-28T05:07:29.099Z,100.00
2022-09-28T05:09:55.875Z,100.00
2022-09-28T05:12:22.330Z,100.00
2022-09-28T05:14:48.743Z,100.00
2022-09-28T05:17:15.173Z,100.00
2022-09-28T05:19:41.622Z,100.00
2022-09-28T05:22:11.456Z,100.00
2022-09-28T05:24:37.907Z,100.00
2022-09-28T05:27:05.085Z,100.00
2022-09-28T05:29:32.577Z,100.00
2022-09-28T05:32:01.577Z,100.00
2022-09-28T05:34:28.900Z,100.00
2022-09-28T05:36:55.537Z,100.00
2022-09-28T05:39:22.035Z,100.00
2022-09-28T05:41:48.453Z,100.00
2022-09-28T05:44:15.094Z,100.00
2022-09-28T05:46:41.673Z,100.00
2022-09-28T05:49:08.120Z,100.00
2022-09-28T05:51:34.567Z,100.00
2022-09-28T05:54:05.604Z,100.00
2022-09-28T05:56:33.006Z,100.00
2022-09-28T05:58:59.593Z,100.00
2022-09-28T06:01:26.294Z,100.00
2022-09-28T06:03:52.749Z,100.00
2022-09-28T06:06:19.218Z,100.00
2022-09-28T06:08:46.405Z,100.00
2022-09-28T06:11:12.843Z,100.00
2022-09-28T06:13:42.733Z,100.00
2022-09-28T06:16:15.161Z,100.00
2022-09-28T06:18:42.125Z,100.00
2022-09-28T06:21:10.889Z,100.00
2022-09-28T06:23:39.938Z,100.00
2022-09-28T06:26:07.032Z,100.00
2022-09-28T06:28:33.497Z,100.00
2022-09-28T06:31:01.082Z,100.00
2022-09-28T06:33:27.612Z,100.00
2022-09-28T06:35:54.357Z,100.00
2022-09-28T06:38:20.780Z,100.00
2022-09-28T06:40:47.322Z,100.00
2022-09-28T06:43:17.794Z,100.00
2022-09-28T06:45:50.233Z,100.00
2022-09-28T06:48:17.530Z,100.00
2022-09-28T06:50:44.209Z,100.00
2022-09-28T06:53:13.620Z,100.00
2022-09-28T06:55:42.058Z,100.00
2022-09-28T06:58:13.282Z,100.00
2022-09-28T07:00:40.747Z,100.00
2022-09-28T07:03:12.645Z,100.00
2022-09-28T07:05:44.427Z,100.00
2022-09-28T07:08:11.360Z,100.00
2022-09-28T07:10:44.265Z,100.00
2022-09-28T07:13:34.404Z,100.00
2022-09-28T07:15:59.623Z,100.00
2022-09-28T07:18:26.824Z,100.00
2022-09-28T07:20:57.052Z,100.00
2022-09-28T07:23:24.316Z,100.00
2022-09-28T07:25:50.760Z,100.00
2022-09-28T07:28:17.416Z,100.00
2022-09-28T07:30:44.726Z,100.00
2022-09-28T07:33:14.618Z,100.00
2022-09-28T07:35:42.353Z,100.00
2022-09-28T07:38:10.791Z,100.00
2022-09-28T07:40:56.269Z,100.00
2022-09-28T07:43:22.837Z,100.00
2022-09-28T07:45:54.043Z,100.00
2022-09-28T07:48:21.835Z,100.00
2022-09-28T07:50:52.859Z,100.00
2022-09-28T07:53:20.792Z,100.00
2022-09-28T07:55:57.596Z,100.00
2022-09-28T07:58:24.106Z,100.00
2022-09-28T08:00:50.893Z,100.00
2022-09-28T08:03:19.242Z,100.00
2022-09-28T08:05:46.887Z,100.00
2022-09-28T08:08:14.582Z,100.00
2022-09-28T08:10:47.281Z,100.00
2022-09-28T08:13:15.233Z,100.00
2022-09-28T08:15:42.636Z,100.00
2022-09-28T08:18:09.498Z,100.00
2022-09-28T08:20:54.485Z,100.00
2022-09-28T08:23:21.001Z,100.00
2022-09-28T08:25:49.099Z,100.00
2022-09-28T08:28:17.621Z,100.00
2022-09-28T08:30:45.302Z,100.00
2022-09-28T08:33:13.075Z,100.00
2022-09-28T08:35:41.246Z,100.00
2022-09-28T08:38:08.786Z,100.00
2022-09-28T08:40:48.876Z,100.00
2022-09-28T08:43:33.116Z,100.00
2022-09-28T08:46:01.082Z,100.00
2022-09-28T08:48:49.018Z,100.00
2022-09-28T08:51:30.983Z,100.00
2022-09-28T08:54:25.620Z,100.00
2022-09-28T08:56:56.955Z,100.00
2022-09-28T08:59:29.508Z,100.00
2022-09-28T09:02:03.611Z,100.00
2022-09-28T09:04:33.340Z,100.00
2022-09-28T09:07:31.744Z,100.00
2022-09-28T09:10:20.912Z,100.00
2022-09-28T09:12:57.250Z,100.00
2022-09-28T09:15:26.651Z,100.00
2022-09-28T09:18:20.067Z,100.00
2022-09-28T09:20:59.444Z,100.00
2022-09-28T09:23:34.754Z,100.00
2022-09-28T09:26:23.025Z,100.00
2022-09-28T09:29:10.136Z,98.87
2022-09-28T09:31:55.432Z,100.00
2022-09-28T09:35:00.088Z,100.00
2022-09-28T09:37:47.597Z,100.00
2022-09-28T09:40:32.327Z,99.06
2022-09-28T09:43:33.846Z,99.75
2022-09-28T09:46:37.509Z,100.00
2022-09-28T09:49:34.551Z,99.32
2022-09-28T09:52:26.966Z,100.00
2022-09-28T09:55:00.102Z,100.00
2022-09-28T09:57:47.178Z,99.94
2022-09-28T10:00:15.751Z,100.00
2022-09-28T10:02:45.868Z,100.00
2022-09-28T10:05:12.291Z,100.00
2022-09-28T10:07:45.716Z,100.00
2022-09-28T10:10:19.094Z,100.00
2022-09-28T10:12:45.420Z,100.00
2022-09-28T10:15:16.145Z,100.00
2022-09-28T10:17:42.899Z,100.00
2022-09-28T10:20:13.511Z,99.51
2022-09-28T10:22:40.723Z,97.13
2022-09-28T10:25:09.817Z,97.98
2022-09-28T10:27:42.059Z,96.12
2022-09-28T10:30:19.045Z,97.31
2022-09-28T10:32:48.471Z,96.74
2022-09-28T10:35:21.557Z,97.25
2022-09-28T10:37:59.644Z,98.73
2022-09-28T10:40:34.157Z,97.74
2022-09-28T10:43:06.349Z,96.75
2022-09-28T10:45:36.877Z,97.46
2022-09-28T10:48:07.336Z,95.06
2022-09-28T10:50:34.966Z,95.68
2022-09-28T10:53:20.985Z,96.51
2022-09-28T10:56:26.894Z,95.55
2022-09-28T10:58:53.323Z,96.56
2022-09-28T11:01:26.755Z,95.26
2022-09-28T11:03:59.797Z,97.05
2022-09-28T11:06:32.248Z,95.51
2022-09-28T11:09:01.804Z,96.21
2022-09-28T11:11:29.622Z,95.63
2022-09-28T11:14:01.082Z,96.26
2022-09-28T11:16:33.722Z,96.06
2022-09-28T11:19:28.786Z,96.73
2022-09-28T11:21:55.297Z,95.91
2022-09-28T11:24:24.465Z,95.70
2022-09-28T11:26:54.449Z,96.58
2022-09-28T11:29:26.830Z,96.41
2022-09-28T11:32:00.505Z,96.67
2022-09-28T11:34:59.494Z,96.95
2022-09-28T11:37:59.278Z,95.24
2022-09-28T11:40:34.960Z,97.43
2022-09-28T11:43:30.551Z,99.24
2022-09-28T11:46:12.024Z,97.81
2022-09-28T11:48:47.721Z,97.07
2022-09-28T11:51:26.748Z,97.56
2022-09-28T11:54:02.710Z,97.79
2022-09-28T11:56:41.621Z,96.26
2022-09-28T11:59:24.912Z,95.85
2022-09-28T12:02:03.358Z,94.40
2022-09-28T12:04:41.225Z,94.48
2022-09-28T12:07:23.237Z,94.41
2022-09-28T12:10:03.427Z,94.63
2022-09-28T12:12:33.512Z,95.16
2022-09-28T12:15:11.551Z,95.72
2022-09-28T12:17:46.983Z,95.54
2022-09-28T12:20:22.692Z,96.13
2022-09-28T12:23:15.290Z,95.18
2022-09-28T12:25:49.554Z,96.47
2022-09-28T12:28:31.469Z,97.90
2022-09-28T12:31:11.921Z,98.01
2022-09-28T12:33:39.374Z,98.83
2022-09-28T12:36:30.162Z,98.30
2022-09-28T12:39:21.717Z,97.68
2022-09-28T12:41:58.040Z,97.53
2022-09-28T12:44:52.898Z,95.96
2022-09-28T12:47:59.173Z,96.02
2022-09-28T12:50:41.733Z,96.20
2022-09-28T12:53:27.091Z,95.89
2022-09-28T12:56:04.048Z,95.65
2022-09-28T12:58:42.691Z,96.03
2022-09-28T13:01:18.289Z,96.83
2022-09-28T13:04:12.755Z,96.97
2022-09-28T13:06:53.105Z,98.54
2022-09-28T13:09:23.905Z,98.64
2022-09-28T13:12:05.592Z,98.83
2022-09-28T13:15:04.204Z,99.27
2022-09-28T13:17:40.639Z,100.00
2022-09-28T13:20:52.123Z,100.00
2022-09-28T13:23:25.590Z,100.00
2022-09-28T13:26:19.304Z,100.00
2022-09-28T13:28:47.215Z,100.00
2022-09-28T13:31:20.154Z,100.00
2022-09-28T13:33:47.940Z,97.37
2022-09-28T13:36:30.464Z,97.36
2022-09-28T13:38:59.487Z,98.03
2022-09-28T13:41:30.373Z,96.34
2022-09-28T13:44:20.959Z,92.58
2022-09-28T13:47:20.931Z,95.59
2022-09-28T13:50:12.047Z,95.86
2022-09-28T13:52:56.774Z,95.93
2022-09-28T13:55:32.949Z,95.45
2022-09-28T13:58:35.911Z,94.04
2022-09-28T14:01:10.454Z,92.86
2022-09-28T14:03:36.927Z,92.75
2022-09-28T14:06:11.507Z,90.33
2022-09-28T14:08:44.347Z,90.16
2022-09-28T14:11:21.745Z,90.65
2022-09-28T14:14:07.976Z,91.15
2022-09-28T14:16:36.215Z,91.73
2022-09-28T14:19:08.701Z,91.25
2022-09-28T14:22:11.632Z,92.27
2022-09-28T14:25:04.522Z,91.83
2022-09-28T14:27:44.057Z,92.45
2022-09-28T14:30:13.522Z,92.33
2022-09-28T14:32:43.061Z,92.13
2022-09-28T14:35:48.492Z,90.50
2022-09-28T14:38:37.487Z,91.51
2022-09-28T14:41:15.960Z,91.52
2022-09-28T14:43:45.417Z,94.06
2022-09-28T14:46:11.980Z,92.35
2022-09-28T14:48:47.943Z,94.08
2022-09-28T14:51:26.790Z,94.33
2022-09-28T14:54:17.814Z,93.98
2022-09-28T14:56:53.530Z,94.53
2022-09-28T14:59:22.479Z,95.29
2022-09-28T15:01:57.825Z,93.74
2022-09-28T15:04:28.690Z,93.12
2022-09-28T15:06:55.522Z,94.77
2022-09-28T15:09:30.179Z,95.25
2022-09-28T15:12:05.890Z,94.93
2022-09-28T15:14:35.248Z,97.01
2022-09-28T15:17:10.064Z,99.52
2022-09-28T15:20:17.243Z,99.06
2022-09-28T15:22:49.015Z,93.51
2022-09-28T15:25:24.372Z,92.48
2022-09-28T15:27:54.211Z,92.71
2022-09-28T15:30:33.867Z,94.33
2022-09-28T15:33:20.901Z,94.64
2022-09-28T15:36:04.531Z,95.98
2022-09-28T15:38:33.241Z,95.73
2022-09-28T15:41:04.534Z,99.78
2022-09-28T15:43:33.183Z,99.19
2022-09-28T15:46:07.156Z,95.42
2022-09-28T15:48:40.673Z,93.40
2022-09-28T15:51:11.657Z,92.19
2022-09-28T15:53:45.934Z,92.62
2022-09-28T15:56:12.708Z,92.63
2022-09-28T15:58:39.912Z,91.49
2022-09-28T16:01:28.507Z,91.94
2022-09-28T16:03:55.105Z,92.20
2022-09-28T16:06:21.562Z,92.68
2022-09-28T16:08:50.582Z,91.63
2022-09-28T16:11:37.932Z,91.87
2022-09-28T16:14:15.850Z,90.63
2022-09-28T16:16:47.005Z,97.29
2022-09-28T16:19:29.701Z,92.43
2022-09-28T16:22:02.349Z,89.81
2022-09-28T16:24:33.036Z,90.59
2022-09-28T16:27:08.233Z,90.09
2022-09-28T16:29:44.980Z,90.89
2022-09-28T16:32:26.463Z,91.43
2022-09-28T16:35:16.600Z,90.92
2022-09-28T16:37:43.149Z,91.29
2022-09-28T16:40:10.759Z,92.41
2022-09-28T16:42:38.657Z,93.40
2022-09-28T16:45:06.731Z,94.79
2022-09-28T16:47:34.699Z,95.69
2022-09-28T16:50:02.480Z,96.90
2022-09-28T16:52:47.366Z,94.46
2022-09-28T16:55:39.671Z,94.16
2022-09-28T16:58:04.747Z,94.92
2022-09-28T17:00:31.830Z,95.46
2022-09-28T17:02:58.594Z,93.84
2022-09-28T17:05:25.495Z,92.73
2022-09-28T17:08:01.404Z,92.51
2022-09-28T17:10:45.163Z,91.96
2022-09-28T17:13:33.376Z,93.00
2022-09-28T17:16:01.690Z,92.25
2022-09-28T17:18:31.645Z,91.26
2022-09-28T17:21:03.147Z,90.17
2022-09-28T17:23:29.856Z,90.60
2022-09-28T17:25:56.444Z,91.39
2022-09-28T17:28:31.313Z,90.95
2022-09-28T17:30:58.118Z,88.88
2022-09-28T17:33:24.668Z,90.58
2022-09-28T17:35:57.640Z,89.78
2022-09-28T17:38:24.179Z,90.72
2022-09-28T17:40:50.665Z,91.15
2022-09-28T17:43:17.268Z,92.24
2022-09-28T17:45:46.684Z,92.54
2022-09-28T17:48:17.698Z,93.08
2022-09-28T17:50:46.634Z,93.27
2022-09-28T17:53:13.695Z,93.16
2022-09-28T17:55:40.636Z,94.12
2022-09-28T17:58:21.661Z,93.98
2022-09-28T18:00:50.333Z,93.78
2022-09-28T18:03:21.116Z,92.14
2022-09-28T18:05:53.646Z,91.73
2022-09-28T18:08:21.471Z,92.38
2022-09-28T18:10:47.959Z,92.69
2022-09-28T18:13:14.839Z,95.45
2022-09-28T18:15:41.858Z,95.86
2022-09-28T18:18:09.599Z,95.89
2022-09-28T18:20:36.893Z,97.27
2022-09-28T18:23:03.461Z,97.04
2022-09-28T18:25:30.081Z,97.13
2022-09-28T18:28:00.855Z,97.49
2022-09-28T18:30:28.174Z,95.09
2022-09-28T18:32:54.982Z,93.40
2022-09-28T18:35:23.137Z,94.93
2022-09-28T18:37:50.367Z,94.54
2022-09-28T18:40:17.287Z,94.42
2022-09-28T18:42:43.779Z,95.64
2022-09-28T18:45:11.250Z,96.66
2022-09-28T18:47:38.909Z,97.12
2022-09-28T18:50:06.220Z,97.28
2022-09-28T18:52:35.914Z,96.55
2022-09-28T18:55:02.360Z,97.67
2022-09-28T18:57:28.826Z,95.82
2022-09-28T18:59:55.261Z,94.34
2022-09-28T19:02:21.780Z,96.02
2022-09-28T19:04:48.284Z,95.71
2022-09-28T19:07:14.700Z,95.47
2022-09-28T19:09:43.954Z,97.70
2022-09-28T19:12:14.486Z,97.93
2022-09-28T19:14:40.936Z,96.51
2022-09-28T19:17:07.504Z,96.47
2022-09-28T19:19:34.078Z,96.20
2022-09-28T19:22:00.825Z,99.73
2022-09-28T19:24:27.675Z,100.00
2022-09-28T19:26:54.374Z,98.23
2022-09-28T19:29:21.547Z,98.42
2022-09-28T19:31:49.605Z,98.82
2022-09-28T19:34:16.414Z,97.81
2022-09-28T19:36:43.244Z,98.23
2022-09-28T19:39:14.280Z,97.36
2022-09-28T19:41:44.787Z,96.48
2022-09-28T19:44:24.457Z,97.59
2022-09-28T19:47:07.365Z,97.48
2022-09-28T19:49:38.437Z,96.13
2022-09-28T19:52:15.666Z,96.62
2022-09-28T19:54:56.693Z,97.46
2022-09-28T19:57:28.508Z,97.98
2022-09-28T20:00:00.882Z,98.74
2022-09-28T20:02:29.006Z,98.60
2022-09-28T20:04:55.524Z,96.89
2022-09-28T20:07:21.963Z,98.47
2022-09-28T20:09:48.385Z,99.81
2022-09-28T20:12:14.829Z,99.01
2022-09-28T20:14:41.266Z,99.70
2022-09-28T20:17:08.064Z,98.77
2022-09-28T20:19:34.895Z,96.50
2022-09-28T20:22:02.722Z,96.25
2022-09-28T20:24:29.522Z,96.41
2022-09-28T20:26:56.213Z,96.07
2022-09-28T20:29:24.263Z,96.42
2022-09-28T20:31:51.755Z,96.35
2022-09-28T20:34:18.368Z,95.74
2022-09-28T20:36:44.818Z,95.67
2022-09-28T20:39:12.087Z,95.73
2022-09-28T20:41:38.597Z,95.19
2022-09-28T20:44:06.740Z,95.56
2022-09-28T20:46:37.071Z,95.28
2022-09-28T20:49:05.125Z,96.44
2022-09-28T20:51:31.821Z,97.41
2022-09-28T20:53:59.376Z,96.48
2022-09-28T20:56:26.868Z,96.42
2022-09-28T20:58:54.451Z,96.68
2022-09-28T21:01:26.554Z,95.51
2022-09-28T21:04:01.702Z,96.25
2022-09-28T21:06:36.661Z,95.76
2022-09-28T21:09:05.404Z,96.40
2022-09-28T21:11:33.035Z,96.53
2022-09-28T21:14:01.955Z,97.65
2022-09-28T21:16:30.646Z,96.39
2022-09-28T21:18:57.651Z,97.59
2022-09-28T21:21:25.311Z,97.21
2022-09-28T21:23:53.297Z,96.11
2022-09-28T21:26:25.273Z,96.53
2022-09-28T21:29:14.554Z,97.29
2022-09-28T21:31:45.756Z,97.39
2022-09-28T21:34:20.684Z,96.08
2022-09-28T21:36:51.226Z,95.92
2022-09-28T21:39:18.329Z,95.64
2022-09-28T21:41:44.756Z,94.82
2022-09-28T21:44:11.250Z,95.68
2022-09-28T21:46:38.860Z,95.71
2022-09-28T21:49:07.614Z,95.17
2022-09-28T21:51:35.315Z,96.26
2022-09-28T21:54:01.737Z,96.34
2022-09-28T21:56:28.604Z,96.24
2022-09-28T21:58:55.283Z,96.01
2022-09-28T22:01:26.091Z,97.36
2022-09-28T22:03:55.295Z,97.25
2022-09-28T22:06:24.010Z,96.88
2022-09-28T22:08:51.062Z,97.14
2022-09-28T22:11:21.024Z,97.23
2022-09-28T22:13:52.877Z,96.90
2022-09-28T22:16:21.923Z,96.67
2022-09-28T22:18:48.894Z,97.36
2022-09-28T22:21:23.958Z,98.08
2022-09-28T22:23:50.994Z,98.05
2022-09-28T22:26:25.729Z,97.35
2022-09-28T22:28:57.832Z,97.99
2022-09-28T22:31:27.570Z,98.66
2022-09-28T22:33:54.325Z,97.18
2022-09-28T22:36:21.222Z,95.89
2022-09-28T22:38:47.924Z,94.80
2022-09-28T22:41:16.335Z,96.55
2022-09-28T22:43:43.594Z,98.24
2022-09-28T22:46:12.503Z,97.11
2022-09-28T22:48:39.224Z,96.30
2022-09-28T22:51:07.114Z,98.30
2022-09-28T22:53:35.162Z,98.46
2022-09-28T22:56:05.564Z,97.45
2022-09-28T22:58:33.497Z,95.66
2022-09-28T23:01:07.849Z,96.61
2022-09-28T23:03:34.883Z,96.61
2022-09-28T23:06:01.710Z,96.57
2022-09-28T23:08:28.533Z,95.72
2022-09-28T23:10:54.996Z,96.42
2022-09-28T23:13:21.412Z,97.08
2022-09-28T23:16:02.742Z,97.39
2022-09-28T23:18:31.643Z,97.18
2022-09-28T23:21:00.413Z,95.48
2022-09-28T23:23:27.547Z,96.90
2022-09-28T23:25:54.362Z,97.62
2022-09-28T23:28:22.566Z,97.55
2022-09-28T23:30:49.170Z,98.77
2022-09-28T23:33:20.105Z,98.36
2022-09-28T23:35:47.070Z,98.11
2022-09-28T23:38:15.333Z,98.62
2022-09-28T23:40:41.887Z,98.16
2022-09-28T23:43:08.566Z,97.47
2022-09-28T23:45:34.970Z,97.11
2022-09-28T23:48:02.024Z,97.65
2022-09-28T23:50:28.579Z,97.78
2022-09-28T23:52:55.034Z,97.60
2022-09-28T23:55:21.615Z,98.03
2022-09-28T23:57:48.108Z,99.91
